createdAt,value
2022-08-14T00:02:31.294Z,56.05
2022-08-14T00:05:01.641Z,55.82
2022-08-14T00:07:31.510Z,55.99
2022-08-14T00:10:50.100Z,56.32
2022-08-14T00:12:57.041Z,56.08
2022-08-14T00:15:37.718Z,56.16
2022-08-14T00:19:05.418Z,56.47
2022-08-14T00:21:11.278Z,56.53
2022-08-14T00:23:41.263Z,56.60
2022-08-14T00:26:23.101Z,56.47
2022-08-14T00:28:54.179Z,56.48
2022-08-14T00:31:35.041Z,56.85
2022-08-14T00:34:36.920Z,56.54
2022-08-14T00:37:06.688Z,56.46
2022-08-14T00:39:37.800Z,56.19
2022-08-14T00:42:21.172Z,56.43
2022-08-14T00:44:58.244Z,56.13
2022-08-14T00:47:28.437Z,56.21
2022-08-14T00:50:02.425Z,56.23
2022-08-14T00:52:32.545Z,56.40
2022-08-14T00:55:03.294Z,56.58
2022-08-14T00:57:35.486Z,56.53
2022-08-14T01:00:34.089Z,56.40
2022-08-14T01:03:00.414Z,56.65
2022-08-14T01:05:51.195Z,56.85
2022-08-14T01:08:57.526Z,56.70
2022-08-14T01:11:19.523Z,57.19
2022-08-14T01:13:55.716Z,56.88
2022-08-14T01:16:31.860Z,56.96
2022-08-14T01:19:21.521Z,57.10
2022-08-14T01:21:53.763Z,57.21
2022-08-14T01:24:30.613Z,57.69
2022-08-14T01:27:07.224Z,57.47
2022-08-14T01:29:58.337Z,57.51
2022-08-14T01:32:27.986Z,57.59
2022-08-14T01:35:19.762Z,57.41
2022-08-14T01:37:56.251Z,57.69
2022-08-14T01:40:36.956Z,57.58
2022-08-14T01:43:18.833Z,57.73
2022-08-14T01:45:57.455Z,57.69
2022-08-14T01:48:37.062Z,57.92
2022-08-14T01:51:19.045Z,58.26
2022-08-14T01:53:55.484Z,58.69
2022-08-14T01:56:37.218Z,58.70
2022-08-14T01:59:20.031Z,59.12
2022-08-14T02:01:58.487Z,58.73
2022-08-14T02:04:40.573Z,59.12
2022-08-14T02:07:34.886Z,59.03
2022-08-14T02:10:15.861Z,58.69
2022-08-14T02:12:48.827Z,59.02
2022-08-14T02:15:25.852Z,59.28
2022-08-14T02:17:56.296Z,59.01
2022-08-14T02:20:26.401Z,59.45
2022-08-14T02:22:56.248Z,59.47
2022-08-14T02:25:29.883Z,59.34
2022-08-14T02:28:22.754Z,59.25
2022-08-14T02:30:52.395Z,59.13
2022-08-14T02:33:23.336Z,59.34
2022-08-14T02:36:05.172Z,59.05
2022-08-14T02:38:44.871Z,59.25
2022-08-14T02:41:16.122Z,59.23
2022-08-14T02:43:48.652Z,59.36
2022-08-14T02:46:20.357Z,59.41
2022-08-14T02:49:03.089Z,59.72
2022-08-14T02:51:36.973Z,59.79
2022-08-14T02:54:08.638Z,59.14
2022-08-14T02:57:14.262Z,59.21
2022-08-14T02:59:33.833Z,59.02
2022-08-14T03:02:05.555Z,59.27
2022-08-14T03:04:36.020Z,58.92
2022-08-14T03:07:08.093Z,59.31
2022-08-14T03:10:24.318Z,59.26
2022-08-14T03:12:32.864Z,59.39
2022-08-14T03:15:14.006Z,59.19
2022-08-14T03:17:57.304Z,59.71
2022-08-14T03:20:29.198Z,59.25
2022-08-14T03:23:03.252Z,59.29
2022-08-14T03:25:37.719Z,59.52
2022-08-14T03:28:14.891Z,59.79
2022-08-14T03:31:00.237Z,59.38
2022-08-14T03:33:38.354Z,59.47
2022-08-14T03:37:51.280Z,59.48
2022-08-14T03:39:10.774Z,58.77
2022-08-14T03:41:46.380Z,58.51
2022-08-14T03:45:27.495Z,58.59
2022-08-14T03:47:08.362Z,58.35
2022-08-14T03:49:42.278Z,57.91
2022-08-14T03:52:37.711Z,57.68
2022-08-14T03:55:06.668Z,58.28
2022-08-14T03:57:37.235Z,58.68
2022-08-14T04:00:27.651Z,58.43
2022-08-14T04:03:04.807Z,58.72
2022-08-14T04:05:43.294Z,58.25
2022-08-14T04:08:29.481Z,57.97
2022-08-14T04:11:02.914Z,57.99
2022-08-14T04:13:41.874Z,58.05
2022-08-14T04:16:18.068Z,58.39
2022-08-14T04:18:50.833Z,58.69
2022-08-14T04:21:24.541Z,58.65
2022-08-14T04:23:57.846Z,58.46
2022-08-14T04:26:42.437Z,58.68
2022-08-14T04:29:15.428Z,58.47
2022-08-14T04:33:02.249Z,57.86
2022-08-14T04:34:41.925Z,58.22
2022-08-14T04:37:29.632Z,58.18
2022-08-14T04:40:15.041Z,58.33
2022-08-14T04:43:02.812Z,58.34
2022-08-14T04:45:40.918Z,58.27
2022-08-14T04:48:39.818Z,58.12
2022-08-14T04:51:05.959Z,58.34
2022-08-14T04:53:43.309Z,58.29
2022-08-14T04:56:30.975Z,58.19
2022-08-14T04:59:10.463Z,58.48
2022-08-14T05:01:48.937Z,58.04
2022-08-14T05:04:24.780Z,58.20
2022-08-14T05:06:55.641Z,58.06
2022-08-14T05:09:29.312Z,58.53
2022-08-14T05:13:13.043Z,58.32
2022-08-14T05:14:54.713Z,57.90
2022-08-14T05:17:28.670Z,57.96
2022-08-14T05:21:05.097Z,57.89
2022-08-14T05:23:01.372Z,58.17
2022-08-14T05:25:34.229Z,58.17
2022-08-14T05:28:12.440Z,57.83
2022-08-14T05:30:47.478Z,57.83
2022-08-14T05:33:19.772Z,58.13
2022-08-14T05:35:52.077Z,57.88
2022-08-14T05:38:31.354Z,58.11
2022-08-14T05:41:03.167Z,58.30
2022-08-14T05:43:41.278Z,58.43
2022-08-14T05:46:15.358Z,58.22
2022-08-14T05:48:49.183Z,58.97
2022-08-14T05:51:21.035Z,58.63
2022-08-14T05:54:00.113Z,58.55
2022-08-14T05:56:31.387Z,58.41
2022-08-14T05:59:03.115Z,58.09
2022-08-14T06:01:32.951Z,58.08
2022-08-14T06:04:04.637Z,57.86
2022-08-14T06:06:38.364Z,57.76
2022-08-14T06:09:09.685Z,57.76
2022-08-14T06:11:40.054Z,57.49
2022-08-14T06:14:21.185Z,57.14
2022-08-14T06:16:54.269Z,57.35
2022-08-14T06:19:24.057Z,57.22
2022-08-14T06:21:58.321Z,56.93
2022-08-14T06:24:30.764Z,56.95
2022-08-14T06:27:10.142Z,56.98
2022-08-14T06:29:40.969Z,56.83
2022-08-14T06:32:38.156Z,56.67
2022-08-14T06:35:02.971Z,56.17
2022-08-14T06:37:45.341Z,55.76
2022-08-14T06:40:26.665Z,55.08
2022-08-14T06:43:03.342Z,55.07
2022-08-14T06:45:34.173Z,54.86
2022-08-14T06:48:05.953Z,54.62
2022-08-14T06:50:36.499Z,54.10
2022-08-14T06:53:08.356Z,54.47
2022-08-14T06:55:40.792Z,54.60
2022-08-14T06:58:29.459Z,54.43
2022-08-14T07:01:27.064Z,54.32
2022-08-14T07:04:24.038Z,54.43
2022-08-14T07:06:59.507Z,53.85
2022-08-14T07:09:43.786Z,53.37
2022-08-14T07:12:54.637Z,52.93
2022-08-14T07:15:12.780Z,53.02
2022-08-14T07:17:47.226Z,52.74
2022-08-14T07:20:31.412Z,52.97
2022-08-14T07:23:07.718Z,52.40
2022-08-14T07:25:42.294Z,50.51
2022-08-14T07:28:20.513Z,49.85
2022-08-14T07:30:52.121Z,49.06
2022-08-14T07:33:28.909Z,49.11
2022-08-14T07:36:02.227Z,48.54
2022-08-14T07:38:37.927Z,48.67
2022-08-14T07:41:14.812Z,48.81
2022-08-14T07:43:55.129Z,49.54
2022-08-14T07:46:29.279Z,48.57
2022-08-14T07:49:01.259Z,48.67
2022-08-14T07:51:50.745Z,48.34
2022-08-14T07:54:23.580Z,48.29
2022-08-14T07:57:06.261Z,47.90
2022-08-14T07:59:41.349Z,47.72
2022-08-14T08:02:18.921Z,48.10
2022-08-14T08:04:54.593Z,47.91
2022-08-14T08:07:30.072Z,47.07
2022-08-14T08:10:46.568Z,47.44
2022-08-14T08:13:24.230Z,48.04
2022-08-14T08:15:57.349Z,47.94
2022-08-14T08:18:29.506Z,47.97
2022-08-14T08:21:01.366Z,48.43
2022-08-14T08:23:43.597Z,48.15
2022-08-14T08:26:21.344Z,48.34
2022-08-14T08:28:59.157Z,48.38
2022-08-14T08:31:32.611Z,48.19
2022-08-14T08:34:06.282Z,48.14
2022-08-14T08:36:42.583Z,48.11
2022-08-14T08:39:21.814Z,48.39
2022-08-14T08:41:53.620Z,48.88
2022-08-14T08:44:34.305Z,48.08
2022-08-14T08:47:07.794Z,48.65
2022-08-14T08:49:42.917Z,48.23
2022-08-14T08:52:25.092Z,48.50
2022-08-14T08:55:04.439Z,48.12
2022-08-14T08:57:37.581Z,48.58
2022-08-14T09:00:24.510Z,48.45
2022-08-14T09:02:59.370Z,48.07
2022-08-14T09:05:29.310Z,48.82
2022-08-14T09:08:31.194Z,48.43
2022-08-14T09:11:19.138Z,48.02
2022-08-14T09:13:52.486Z,48.51
2022-08-14T09:16:26.512Z,48.38
2022-08-14T09:18:57.021Z,48.55
2022-08-14T09:21:31.203Z,47.93
2022-08-14T09:24:29.134Z,48.20
2022-08-14T09:26:53.027Z,47.68
2022-08-14T09:29:24.455Z,48.09
2022-08-14T09:32:04.479Z,48.13
2022-08-14T09:35:04.667Z,48.02
2022-08-14T09:37:55.140Z,47.36
2022-08-14T09:40:38.787Z,47.24
2022-08-14T09:43:22.403Z,47.08
2022-08-14T09:45:53.895Z,45.77
2022-08-14T09:48:29.888Z,45.87
2022-08-14T09:54:17.964Z,45.88
2022-08-14T09:56:30.917Z,46.47
2022-08-14T09:59:15.294Z,46.12
2022-08-14T10:01:52.496Z,46.09
2022-08-14T10:04:35.000Z,46.46
2022-08-14T10:07:08.543Z,46.44
2022-08-14T10:09:57.628Z,46.45
2022-08-14T10:12:45.153Z,47.42
2022-08-14T10:15:20.723Z,47.30
2022-08-14T10:17:53.266Z,47.66
2022-08-14T10:20:41.084Z,48.02
2022-08-14T10:23:43.405Z,48.02
2022-08-14T10:26:23.148Z,48.32
2022-08-14T10:29:18.497Z,47.96
2022-08-14T10:31:59.231Z,47.74
2022-08-14T10:34:35.673Z,47.86
2022-08-14T10:37:14.549Z,47.67
2022-08-14T10:40:05.829Z,47.76
2022-08-14T10:42:43.901Z,47.05
2022-08-14T10:45:24.971Z,46.74
2022-08-14T10:48:07.941Z,46.48
2022-08-14T10:50:46.554Z,46.55
2022-08-14T10:53:28.119Z,46.21
2022-08-14T10:56:00.848Z,46.46
2022-08-14T10:58:35.001Z,45.63
2022-08-14T11:01:08.032Z,45.82
2022-08-14T11:03:55.823Z,45.44
2022-08-14T11:06:27.370Z,45.76
2022-08-14T11:08:59.106Z,46.01
2022-08-14T11:11:37.086Z,46.10
2022-08-14T11:14:09.297Z,46.81
2022-08-14T11:16:40.989Z,47.00
2022-08-14T11:19:20.731Z,47.82
2022-08-14T11:21:56.195Z,48.73
2022-08-14T11:24:54.092Z,49.38
2022-08-14T11:27:25.769Z,50.30
2022-08-14T11:30:50.315Z,50.77
2022-08-14T11:32:57.084Z,51.20
2022-08-14T11:35:44.302Z,51.40
2022-08-14T11:38:21.426Z,51.97
2022-08-14T11:40:52.794Z,52.65
2022-08-14T11:43:29.091Z,52.96
2022-08-14T11:46:03.901Z,53.47
2022-08-14T11:49:03.860Z,53.30
2022-08-14T11:51:53.537Z,53.60
2022-08-14T11:54:33.902Z,54.38
2022-08-14T11:57:07.118Z,55.18
2022-08-14T11:59:38.513Z,54.73
2022-08-14T12:03:01.521Z,54.71
2022-08-14T12:05:09.206Z,54.51
2022-08-14T12:07:49.742Z,54.54
2022-08-14T12:10:26.056Z,54.34
2022-08-14T12:13:17.824Z,54.82
2022-08-14T12:15:58.052Z,55.44
2022-08-14T12:18:34.470Z,57.20
2022-08-14T12:21:15.825Z,59.77
2022-08-14T12:24:03.604Z,59.01
2022-08-14T12:26:40.741Z,61.26
2022-08-14T12:29:14.497Z,64.56
2022-08-14T12:31:47.087Z,66.58
2022-08-14T12:34:20.494Z,63.36
2022-08-14T12:37:04.139Z,66.84
2022-08-14T12:39:40.196Z,67.04
2022-08-14T12:42:11.888Z,65.86
2022-08-14T12:45:03.921Z,64.42
2022-08-14T12:47:35.140Z,64.91
2022-08-14T12:50:05.956Z,64.84
2022-08-14T12:52:45.355Z,65.12
2022-08-14T12:56:18.812Z,66.43
2022-08-14T12:58:50.090Z,64.39
2022-08-14T13:01:21.776Z,62.97
2022-08-14T13:03:52.736Z,63.83
2022-08-14T13:06:28.319Z,63.60
2022-08-14T13:08:59.986Z,62.83
2022-08-14T13:11:40.891Z,63.52
2022-08-14T13:14:17.173Z,62.89
2022-08-14T13:16:50.295Z,63.60
2022-08-14T13:19:21.216Z,64.04
2022-08-14T13:22:04.762Z,63.13
2022-08-14T13:24:39.788Z,61.21
2022-08-14T13:27:12.444Z,60.88
2022-08-14T13:29:43.959Z,61.09
2022-08-14T13:32:19.516Z,60.07
2022-08-14T13:34:52.758Z,60.08
2022-08-14T13:37:22.927Z,59.95
2022-08-14T13:39:56.708Z,59.57
2022-08-14T13:42:30.647Z,58.12
2022-08-14T13:45:03.699Z,57.63
2022-08-14T13:47:35.499Z,55.61
2022-08-14T13:50:09.782Z,54.55
2022-08-14T13:52:52.868Z,54.05
2022-08-14T13:55:28.562Z,54.27
2022-08-14T13:58:04.324Z,54.58
2022-08-14T14:00:52.854Z,54.65
2022-08-14T14:03:30.370Z,55.64
2022-08-14T14:06:03.896Z,56.04
2022-08-14T14:08:43.609Z,56.72
2022-08-14T14:11:24.036Z,57.31
2022-08-14T14:13:56.327Z,56.27
2022-08-14T14:16:30.804Z,56.40
2022-08-14T14:19:10.443Z,56.66
2022-08-14T14:21:41.795Z,57.97
2022-08-14T14:24:15.544Z,60.38
2022-08-14T14:26:49.911Z,60.55
2022-08-14T14:29:23.969Z,60.57
2022-08-14T14:31:58.753Z,60.69
2022-08-14T14:34:34.141Z,60.28
2022-08-14T14:37:06.161Z,60.49
2022-08-14T14:39:38.026Z,60.38
2022-08-14T14:42:32.429Z,61.35
2022-08-14T14:45:14.252Z,60.88
2022-08-14T14:47:49.013Z,61.21
2022-08-14T14:50:22.387Z,62.14
2022-08-14T14:53:12.250Z,62.32
2022-08-14T14:56:46.853Z,62.10
2022-08-14T14:58:37.983Z,62.63
2022-08-14T15:01:10.348Z,62.42
2022-08-14T15:03:43.256Z,62.73
2022-08-14T15:06:17.565Z,63.29
2022-08-14T15:08:55.595Z,63.75
2022-08-14T15:11:30.394Z,64.70
2022-08-14T15:14:02.744Z,65.68
2022-08-14T15:16:52.663Z,65.77
2022-08-14T15:19:23.596Z,65.36
2022-08-14T15:21:54.890Z,65.35
2022-08-14T15:24:26.923Z,65.14
2022-08-14T15:26:58.666Z,65.16
2022-08-14T15:29:28.776Z,65.28
2022-08-14T15:32:01.099Z,64.98
2022-08-14T15:34:45.969Z,65.16
2022-08-14T15:37:23.860Z,64.91
2022-08-14T15:39:54.025Z,64.40
2022-08-14T15:42:25.113Z,64.29
2022-08-14T15:45:01.406Z,63.19
2022-08-14T15:47:33.248Z,63.42
2022-08-14T15:50:08.618Z,64.26
2022-08-14T15:52:42.963Z,64.60
2022-08-14T15:55:16.254Z,65.29
2022-08-14T15:58:01.357Z,65.81
2022-08-14T16:00:51.683Z,66.29
2022-08-14T16:03:27.144Z,66.94
2022-08-14T16:06:11.194Z,67.14
2022-08-14T16:08:58.954Z,67.21
2022-08-14T16:11:33.270Z,66.97
2022-08-14T16:14:06.776Z,65.87
2022-08-14T16:16:51.642Z,65.65
2022-08-14T16:19:31.102Z,65.38
2022-08-14T16:22:57.539Z,65.59
2022-08-14T16:25:01.916Z,64.67
2022-08-14T16:27:41.117Z,64.65
2022-08-14T16:30:20.563Z,64.57
2022-08-14T16:32:57.812Z,64.02
2022-08-14T16:35:43.207Z,64.25
2022-08-14T16:38:45.374Z,64.08
2022-08-14T16:41:27.608Z,64.39
2022-08-14T16:44:01.949Z,64.58
2022-08-14T16:46:35.280Z,64.65
2022-08-14T16:49:07.326Z,64.63
2022-08-14T16:51:39.599Z,64.32
2022-08-14T16:54:34.324Z,64.26
2022-08-14T16:57:17.062Z,65.26
2022-08-14T16:59:52.607Z,66.02
2022-08-14T17:02:35.591Z,65.42
2022-08-14T17:05:22.941Z,65.69
2022-08-14T17:08:42.568Z,65.57
2022-08-14T17:11:11.031Z,65.29
2022-08-14T17:13:58.445Z,65.45
2022-08-14T17:16:36.941Z,65.48
2022-08-14T17:19:09.836Z,65.07
2022-08-14T17:21:47.550Z,65.19
2022-08-14T17:24:56.203Z,65.63
2022-08-14T17:27:10.226Z,65.54
2022-08-14T17:32:55.518Z,66.60
2022-08-14T17:35:57.973Z,68.10
2022-08-14T17:38:38.662Z,68.51
2022-08-14T17:41:32.621Z,68.83
2022-08-14T17:44:34.359Z,69.07
2022-08-14T17:49:52.061Z,68.59
2022-08-14T17:52:34.557Z,68.96
2022-08-14T17:55:09.878Z,69.15
2022-08-14T17:57:43.913Z,68.91
2022-08-14T18:00:17.813Z,69.12
2022-08-14T18:02:51.182Z,69.19
2022-08-14T18:06:08.589Z,69.27
2022-08-14T18:08:32.203Z,69.15
2022-08-14T18:11:05.237Z,69.08
2022-08-14T18:13:50.182Z,69.43
2022-08-14T18:16:22.806Z,69.11
2022-08-14T18:18:54.995Z,68.81
2022-08-14T18:21:56.561Z,69.36
2022-08-14T18:24:28.343Z,69.35
2022-08-14T18:27:08.601Z,68.79
2022-08-14T18:29:54.751Z,68.75
2022-08-14T18:32:54.670Z,69.12
2022-08-14T18:35:46.323Z,68.39
2022-08-14T18:41:36.681Z,67.61
2022-08-14T18:44:10.355Z,67.58
2022-08-14T18:47:14.933Z,66.79
2022-08-14T18:50:27.948Z,67.10
2022-08-14T18:53:07.199Z,67.02
2022-08-14T18:55:53.762Z,67.31
2022-08-14T18:58:29.511Z,66.84
2022-08-14T19:01:06.083Z,66.79
2022-08-14T19:03:56.170Z,66.70
2022-08-14T19:06:56.437Z,67.38
2022-08-14T19:09:53.760Z,66.78
2022-08-14T19:13:04.931Z,66.49
2022-08-14T19:15:37.513Z,66.32
2022-08-14T19:18:25.858Z,65.79
2022-08-14T19:21:00.236Z,65.87
2022-08-14T19:23:42.239Z,66.34
2022-08-14T19:26:35.875Z,66.72
2022-08-14T19:29:24.098Z,66.87
2022-08-14T19:31:56.178Z,66.93
2022-08-14T19:34:52.198Z,66.23
2022-08-14T19:37:48.437Z,66.03
2022-08-14T19:40:32.228Z,67.10
2022-08-14T19:43:06.642Z,67.19
2022-08-14T19:45:40.047Z,66.54
2022-08-14T19:48:15.586Z,66.10
2022-08-14T19:50:47.236Z,65.69
2022-08-14T19:53:18.408Z,65.62
2022-08-14T19:55:59.765Z,65.79
2022-08-14T19:58:54.712Z,65.90
2022-08-14T20:01:37.270Z,66.06
2022-08-14T20:04:45.134Z,65.66
2022-08-14T20:07:04.107Z,65.25
2022-08-14T20:11:08.343Z,64.58
2022-08-14T20:12:35.266Z,64.65
2022-08-14T20:15:15.441Z,65.17
2022-08-14T20:17:52.986Z,65.59
2022-08-14T20:20:31.732Z,66.14
2022-08-14T20:23:11.110Z,66.09
2022-08-14T20:25:55.888Z,66.01
2022-08-14T20:28:35.791Z,66.70
2022-08-14T20:31:19.458Z,66.40
2022-08-14T20:34:06.984Z,67.33
2022-08-14T20:36:40.032Z,67.80
2022-08-14T20:39:15.668Z,67.63
2022-08-14T20:41:49.016Z,68.18
2022-08-14T20:44:39.699Z,68.67
2022-08-14T20:47:17.105Z,69.02
2022-08-14T20:49:47.359Z,68.21
2022-08-14T20:52:19.972Z,67.96
2022-08-14T20:54:51.881Z,68.15
2022-08-14T20:57:22.488Z,67.74
2022-08-14T20:59:56.859Z,67.37
2022-08-14T21:02:46.225Z,68.01
2022-08-14T21:05:33.389Z,67.84
2022-08-14T21:08:07.863Z,67.51
2022-08-14T21:10:44.289Z,67.22
2022-08-14T21:14:08.624Z,67.19
2022-08-14T21:16:25.910Z,66.45
2022-08-14T21:19:02.135Z,66.29
2022-08-14T21:21:40.645Z,66.24
2022-08-14T21:24:39.679Z,66.67
2022-08-14T21:27:12.847Z,67.58
2022-08-14T21:29:53.612Z,67.70
2022-08-14T21:32:47.093Z,69.11
2022-08-14T21:35:22.997Z,69.53
2022-08-14T21:37:53.888Z,69.75
2022-08-14T21:40:40.283Z,70.01
2022-08-14T21:43:18.229Z,70.76
2022-08-14T21:45:52.997Z,71.51
2022-08-14T21:48:26.372Z,71.99
2022-08-14T21:51:53.866Z,72.60
2022-08-14T21:54:00.285Z,72.08
2022-08-14T21:56:38.763Z,71.63
2022-08-14T21:59:17.511Z,71.83
2022-08-14T22:02:00.097Z,71.68
2022-08-14T22:04:40.520Z,71.88
2022-08-14T22:07:17.393Z,72.13
2022-08-14T22:09:55.193Z,72.52
2022-08-14T22:12:45.248Z,72.76
2022-08-14T22:15:21.989Z,73.20
2022-08-14T22:17:54.104Z,73.32
2022-08-14T22:20:28.163Z,73.33
2022-08-14T22:23:04.335Z,73.64
2022-08-14T22:25:41.289Z,74.04
2022-08-14T22:28:19.385Z,73.91
2022-08-14T22:30:55.078Z,74.19
2022-08-14T22:33:31.118Z,73.77
2022-08-14T22:36:25.055Z,73.82
2022-08-14T22:38:57.427Z,73.31
2022-08-14T22:41:31.504Z,73.40
2022-08-14T22:44:08.349Z,73.77
2022-08-14T22:46:43.455Z,73.40
2022-08-14T22:50:28.514Z,73.57
2022-08-14T22:52:32.559Z,73.36
2022-08-14T22:54:59.964Z,73.07
2022-08-14T22:57:37.126Z,73.48
2022-08-14T23:00:16.377Z,73.17
2022-08-14T23:02:46.797Z,73.39
2022-08-14T23:05:17.728Z,73.67
2022-08-14T23:08:59.297Z,73.35
2022-08-14T23:10:59.713Z,73.49
2022-08-14T23:13:30.629Z,73.49
2022-08-14T23:16:02.030Z,73.65
2022-08-14T23:18:33.254Z,73.44
2022-08-14T23:21:03.364Z,73.11
2022-08-14T23:23:34.458Z,73.31
2022-08-14T23:26:48.386Z,73.96
2022-08-14T23:29:03.059Z,74.30
2022-08-14T23:31:35.803Z,74.71
2022-08-14T23:34:07.730Z,74.35
2022-08-14T23:36:54.224Z,74.38
2022-08-14T23:39:30.040Z,75.07
2022-08-14T23:42:08.490Z,75.18
2022-08-14T23:44:39.740Z,74.94
2022-08-14T23:47:26.212Z,75.30
2022-08-14T23:50:03.659Z,75.55
2022-08-14T23:52:56.361Z,75.64
2022-08-14T23:55:35.291Z,75.70
2022-08-14T23:58:07.825Z,75.52
